createdAt,value
2022-10-28T00:02:28.482Z,101207.90
2022-10-28T00:07:36.019Z,101207.08
2022-10-28T00:12:43.248Z,101207.80
2022-10-28T00:17:56.668Z,101203.03
2022-10-28T00:23:03.805Z,101207.35
2022-10-28T00:28:10.973Z,101205.66
2022-10-28T00:33:18.025Z,101198.85
2022-10-28T00:38:25.830Z,101195.43
2022-10-28T00:43:42.005Z,101189.10
2022-10-28T00:48:53.552Z,101175.77
2022-10-28T00:54:01.320Z,101179.71
2022-10-28T00:59:15.646Z,101173.92
2022-10-28T01:04:23.879Z,101168.98
2022-10-28T01:09:31.101Z,101161.42
2022-10-28T01:14:52.866Z,101162.09
2022-10-28T01:20:11.328Z,101154.05
2022-10-28T01:25:54.295Z,101153.36
2022-10-28T01:31:29.933Z,101146.69
2022-10-28T01:36:42.686Z,101145.14
2022-10-28T01:41:58.314Z,101144.46
2022-10-28T01:47:12.025Z,101136.44
2022-10-28T01:52:23.848Z,101135.09
2022-10-28T01:57:33.079Z,101122.09
2022-10-28T02:02:41.215Z,101113.88
2022-10-28T02:07:49.426Z,101116.95
2022-10-28T02:12:59.309Z,101120.39
2022-10-28T02:18:19.714Z,101116.95
2022-10-28T02:23:37.347Z,101115.07
2022-10-28T02:28:50.089Z,101116.79
2022-10-28T02:34:02.611Z,101117.13
2022-10-28T02:39:14.160Z,101116.79
2022-10-28T02:44:25.411Z,101115.77
2022-10-28T02:49:39.047Z,101115.80
2022-10-28T02:54:52.724Z,101116.32
2022-10-28T03:00:01.775Z,101110.16
2022-10-28T03:05:11.105Z,101110.70
2022-10-28T03:10:18.532Z,101108.48
2022-10-28T03:15:25.670Z,101112.56
2022-10-28T03:20:32.911Z,101110.20
2022-10-28T03:25:40.421Z,101101.48
2022-10-28T03:30:47.523Z,101102.52
2022-10-28T03:35:54.907Z,101102.53
2022-10-28T03:41:02.054Z,101101.34
2022-10-28T03:46:09.350Z,101100.65
2022-10-28T03:51:16.759Z,101095.87
2022-10-28T03:56:24.040Z,101088.35
2022-10-28T04:01:32.678Z,101091.59
2022-10-28T04:06:40.284Z,101094.16
2022-10-28T04:11:50.599Z,101085.10
2022-10-28T04:16:57.794Z,101087.16
2022-10-28T04:22:05.071Z,101086.14
2022-10-28T04:27:12.190Z,101089.38
2022-10-28T04:32:19.289Z,101089.38
2022-10-28T04:37:26.791Z,101079.96
2022-10-28T04:42:34.004Z,101067.33
2022-10-28T04:47:41.191Z,101061.52
2022-10-28T04:52:48.764Z,101059.30
2022-10-28T04:58:00.865Z,101057.94
2022-10-28T05:03:07.985Z,101064.25
2022-10-28T05:08:15.134Z,101058.60
2022-10-28T05:13:22.504Z,101064.08
2022-10-28T05:18:29.704Z,101060.48
2022-10-28T05:23:36.694Z,101059.98
2022-10-28T05:28:44.168Z,101054.86
2022-10-28T05:33:51.257Z,101053.50
2022-10-28T05:38:58.489Z,101059.83
2022-10-28T05:44:05.970Z,101061.54
2022-10-28T05:49:13.253Z,101061.19
2022-10-28T05:54:21.514Z,101057.09
2022-10-28T05:59:28.728Z,101053.98
2022-10-28T06:04:35.829Z,101048.52
2022-10-28T06:09:43.421Z,101048.67
2022-10-28T06:14:49.070Z,101051.70
2022-10-28T06:19:56.174Z,101046.69
2022-10-28T06:25:03.446Z,101046.10
2022-10-28T06:30:13.223Z,101044.80
2022-10-28T06:35:20.997Z,101047.70
2022-10-28T06:40:28.432Z,101053.48
2022-10-28T06:45:36.252Z,101056.53
2022-10-28T06:50:45.137Z,101066.59
2022-10-28T06:55:57.044Z,101071.34
2022-10-28T07:01:08.136Z,101073.33
2022-10-28T07:06:26.176Z,101066.55
2022-10-28T07:11:33.331Z,101068.58
2022-10-28T07:16:40.417Z,101070.73
2022-10-28T07:21:48.505Z,101074.10
2022-10-28T07:26:57.777Z,101068.47
2022-10-28T07:32:05.333Z,101069.92
2022-10-28T07:37:14.003Z,101064.38
2022-10-28T07:42:21.180Z,101061.61
2022-10-28T07:47:28.367Z,101077.44
2022-10-28T07:52:35.475Z,101073.14
2022-10-28T07:57:42.909Z,101070.86
2022-10-28T08:02:49.992Z,101070.95
2022-10-28T08:07:59.558Z,101064.18
2022-10-28T08:13:07.218Z,101060.07
2022-10-28T08:18:14.255Z,101053.19
2022-10-28T08:23:21.357Z,101047.23
2022-10-28T08:28:28.557Z,101048.33
2022-10-28T08:33:36.000Z,101050.24
2022-10-28T08:38:45.647Z,101048.48
2022-10-28T08:44:28.201Z,101044.64
2022-10-28T08:49:39.496Z,101048.50
2022-10-28T08:54:51.022Z,101047.25
2022-10-28T09:00:00.071Z,101047.85
2022-10-28T09:05:21.514Z,101048.52
2022-10-28T09:10:49.313Z,101050.71
2022-10-28T09:16:07.921Z,101051.15
2022-10-28T09:21:24.387Z,101054.86
2022-10-28T09:26:43.153Z,101047.69
2022-10-28T09:32:19.145Z,101045.59
2022-10-28T09:37:49.987Z,101040.52
2022-10-28T09:43:24.532Z,101037.70
2022-10-28T09:48:35.697Z,101036.02
2022-10-28T09:54:02.095Z,101046.75
2022-10-28T09:59:13.111Z,101052.84
2022-10-28T10:04:24.100Z,101039.52
2022-10-28T10:09:48.694Z,101030.13
2022-10-28T10:15:20.486Z,101031.39
2022-10-28T10:20:27.329Z,101028.15
2022-10-28T10:25:34.151Z,101023.81
2022-10-28T10:30:47.128Z,101026.29
2022-10-28T10:36:21.111Z,101016.66
2022-10-28T10:41:38.732Z,101009.76
2022-10-28T10:46:45.504Z,101003.09
2022-10-28T10:52:17.869Z,100999.84
2022-10-28T10:57:26.116Z,100993.83
2022-10-28T11:02:55.029Z,100991.83
2022-10-28T11:08:06.661Z,100991.71
2022-10-28T11:13:27.811Z,100993.02
2022-10-28T11:18:43.849Z,100987.58
2022-10-28T11:24:01.711Z,100985.98
2022-10-28T11:29:26.926Z,100973.45
2022-10-28T11:34:52.950Z,100957.02
2022-10-28T11:40:16.854Z,100955.85
2022-10-28T11:45:32.130Z,100958.73
2022-10-28T11:50:50.375Z,100955.80
2022-10-28T11:56:07.421Z,100949.08
2022-10-28T12:01:30.666Z,100941.85
2022-10-28T12:06:56.340Z,100924.98
2022-10-28T12:12:17.772Z,100914.39
2022-10-28T12:17:35.292Z,100916.27
2022-10-28T12:23:03.794Z,100915.92
2022-10-28T12:28:21.520Z,100905.02
2022-10-28T12:33:34.314Z,100905.11
2022-10-28T12:38:45.122Z,100897.73
2022-10-28T12:43:57.439Z,100883.05
2022-10-28T12:49:12.064Z,100875.02
2022-10-28T12:54:23.177Z,100876.48
2022-10-28T12:59:53.238Z,100871.78
2022-10-28T13:05:23.074Z,100864.73
2022-10-28T13:10:54.718Z,100863.49
2022-10-28T13:16:36.567Z,100858.86
2022-10-28T13:22:19.215Z,100858.30
2022-10-28T13:27:26.500Z,100855.23
2022-10-28T13:32:39.399Z,100844.25
2022-10-28T13:37:50.212Z,100835.89
2022-10-28T13:42:57.441Z,100833.26
2022-10-28T13:48:35.064Z,100830.07
2022-10-28T13:53:53.148Z,100833.12
2022-10-28T13:59:02.028Z,100835.27
2022-10-28T14:04:24.208Z,100845.48
2022-10-28T14:09:34.058Z,100847.83
2022-10-28T14:15:21.700Z,100847.98
2022-10-28T14:20:59.334Z,100848.90
2022-10-28T14:26:07.252Z,100841.77
2022-10-28T14:31:46.509Z,100841.55
2022-10-28T14:37:01.408Z,100842.13
2022-10-28T14:42:24.734Z,100833.63
2022-10-28T14:47:54.333Z,100830.84
2022-10-28T14:53:26.826Z,100831.39
2022-10-28T14:58:39.585Z,100825.29
2022-10-28T15:03:51.286Z,100824.62
2022-10-28T15:09:04.039Z,100822.60
2022-10-28T15:14:32.497Z,100817.65
2022-10-28T15:19:39.617Z,100817.02
2022-10-28T15:25:06.684Z,100820.69
2022-10-28T15:30:20.974Z,100822.71
2022-10-28T15:35:42.580Z,100826.56
2022-10-28T15:40:50.493Z,100829.67
2022-10-28T15:46:09.792Z,100834.50
2022-10-28T15:51:19.607Z,100831.13
2022-10-28T15:56:28.319Z,100829.70
2022-10-28T16:01:40.010Z,100829.14
2022-10-28T16:06:47.697Z,100833.48
2022-10-28T16:11:57.626Z,100840.45
2022-10-28T16:17:13.755Z,100829.63
2022-10-28T16:22:20.974Z,100822.13
2022-10-28T16:27:31.029Z,100832.16
2022-10-28T16:32:42.159Z,100823.85
2022-10-28T16:37:54.739Z,100826.92
2022-10-28T16:43:02.648Z,100832.55
2022-10-28T16:48:14.247Z,100837.79
2022-10-28T16:53:21.858Z,100845.27
2022-10-28T16:58:46.886Z,100850.84
2022-10-28T17:03:54.387Z,100853.75
2022-10-28T17:09:19.312Z,100847.82
2022-10-28T17:14:43.931Z,100838.52
2022-10-28T17:19:51.278Z,100834.66
2022-10-28T17:24:58.226Z,100842.73
2022-10-28T17:30:06.113Z,100845.88
2022-10-28T17:35:30.782Z,100852.95
2022-10-28T17:40:58.545Z,100852.70
2022-10-28T17:46:09.503Z,100843.80
2022-10-28T17:51:17.602Z,100836.75
2022-10-28T17:56:42.510Z,100833.46
2022-10-28T18:01:49.703Z,100838.17
2022-10-28T18:07:14.605Z,100840.30
2022-10-28T18:12:21.620Z,100834.12
2022-10-28T18:17:28.804Z,100833.67
2022-10-28T18:22:35.949Z,100829.29
2022-10-28T18:27:43.727Z,100823.24
2022-10-28T18:32:50.865Z,100821.52
2022-10-28T18:37:58.139Z,100820.84
2022-10-28T18:43:05.323Z,100817.11
2022-10-28T18:48:12.515Z,100821.86
2022-10-28T18:53:40.914Z,100824.24
2022-10-28T18:58:51.531Z,100825.39
2022-10-28T19:03:59.928Z,100825.49
2022-10-28T19:09:07.633Z,100829.03
2022-10-28T19:14:14.808Z,100821.64
2022-10-28T19:19:39.513Z,100816.85
2022-10-28T19:24:46.661Z,100819.48
2022-10-28T19:29:53.693Z,100813.80
2022-10-28T19:35:00.697Z,100817.36
2022-10-28T19:40:09.288Z,100821.38
2022-10-28T19:45:16.576Z,100823.13
2022-10-28T19:50:23.596Z,100828.11
2022-10-28T19:55:30.658Z,100829.73
2022-10-28T20:00:37.657Z,100825.80
2022-10-28T20:05:44.589Z,100828.59
2022-10-28T20:11:01.117Z,100819.76
2022-10-28T20:16:11.815Z,100811.28
2022-10-28T20:21:20.703Z,100813.19
2022-10-28T20:26:45.140Z,100808.13
2022-10-28T20:31:53.006Z,100805.25
2022-10-28T20:37:00.005Z,100804.34
2022-10-28T20:42:24.583Z,100800.30
2022-10-28T20:47:31.577Z,100802.65
2022-10-28T20:52:57.101Z,100802.27
2022-10-28T20:58:04.358Z,100805.66
2022-10-28T21:03:11.589Z,100807.09
2022-10-28T21:08:36.532Z,100802.16
2022-10-28T21:13:45.296Z,100797.44
2022-10-28T21:18:52.362Z,100798.55
2022-10-28T21:23:59.561Z,100798.30
2022-10-28T21:29:06.836Z,100791.55
2022-10-28T21:34:31.469Z,100792.92
2022-10-28T21:39:39.892Z,100795.38
2022-10-28T21:44:46.936Z,100792.14
2022-10-28T21:49:54.475Z,100789.08
2022-10-28T21:55:09.680Z,100786.56
2022-10-28T22:00:45.493Z,100780.48
2022-10-28T22:05:55.335Z,100780.05
2022-10-28T22:11:04.025Z,100773.94
2022-10-28T22:16:16.197Z,100769.71
2022-10-28T22:21:41.245Z,100770.88
2022-10-28T22:26:48.322Z,100769.49
2022-10-28T22:32:12.869Z,100773.52
2022-10-28T22:37:37.970Z,100772.05
2022-10-28T22:43:02.656Z,100775.20
2022-10-28T22:48:10.189Z,100774.16
2022-10-28T22:53:17.332Z,100774.64
2022-10-28T22:58:41.902Z,100779.53
2022-10-28T23:03:50.655Z,100775.81
2022-10-28T23:08:57.848Z,100776.64
2022-10-28T23:14:04.848Z,100775.45
2022-10-28T23:19:11.892Z,100769.08
2022-10-28T23:24:19.119Z,100771.15
2022-10-28T23:29:26.261Z,100777.98
2022-10-28T23:34:33.348Z,100776.63
2022-10-28T23:39:40.806Z,100767.62
2022-10-28T23:44:47.818Z,100767.20
2022-10-28T23:49:54.923Z,100770.89
2022-10-28T23:55:01.977Z,100771.40
